Tokyo, Japan

5:32 AM JST on May 07, 2015 (GMT +0900)
Tokyo (Haneda) International | | Change Station
CLOSE
Current Station
Airport
Location: Tokyo,
Elevation: 26 ft
Nearby Weather Stations

Elev 26 ft 35.55 °N, 139.78 °E | Updated 32 minutes ago

Mostly Cloudy
Mostly Cloudy
63 °F
Feels Like 63 °F
N
6
Wind Variable Wind from WSW

Today
High -- | Low -- °F
--% Chance of Precip.
Yesterday
High -- | Low -- °F
Precip. -- in
4:43 AM 6:31 PM
Waning Gibbous, 92% visible
Pressure 29.83 in
Visibility 6.2 miles
Clouds Few 2500 ft
Mostly Cloudy 16000 ft
Dew Point 54 °F
Humidity 72%
Rainfall 0.00 in
Snow Depth Not available.
UV 0 out of 12
Pollen Not available.
Air Quality Not available.
Flu Activity Not available.
METAR RJTT 062000Z 25005KT 230V300 9999 FEW025 BKN160 BKN/// 17/12 Q1010 NOSIG RMK 1CU025 5AC160 A2984

More Conditions Fewer Conditions

Pressure 29.83 in
Visibility 6.2 miles
Clouds Few 2500 ft
Mostly Cloudy 16000 ft
Dew Point 54 °F
Humidity 72%
Rainfall 0.00 in
Snow Depth Not available.
UV 0 out of 12
Pollen Not available.
Air Quality Not available.
Flu Activity Not available.
METAR RJTT 062000Z 25005KT 230V300 9999 FEW025 BKN160 BKN/// 17/12 Q1010 NOSIG RMK 1CU025 5AC160 A2984

More Conditions Fewer Conditions

10-Day Weather Forecast

Almanac

Astronomy

May. 07, 2015 Rise Set
Actual Time
Civil Twilight
Nautical Twilight
Astronomical Twilight
Moon
Length Of Visible Light
Length of Day
Tomorrow will be .
, % of the Moon is Illuminated

Today's Extremes

Country Highs Country Lows

Community

WunderPhotos

Upload Photos

1,819,011 photos uploaded!

WunderBlogs® & News

Nearby

Air Quality

  Air Quality AQ Index Pollutant
Not available.

Snow Depth

Station Depth Elevation

Earthquake Activity

City Distance Mag. Time & Date
Minimum magnitude displayed is 2.5.

Coastal Water Temperatures

Place Temperature

Stations

Nearby Weather Stations

Station Location Temp. Windchill Dew Point Humidity Wind Precip. Elev Updated Type